createdAt,value
2022-10-19T00:04:57.717Z,13.10
2022-10-19T00:10:02.741Z,13.10
2022-10-19T00:15:07.758Z,13.10
2022-10-19T00:20:12.364Z,13.00
2022-10-19T00:25:17.590Z,13.00
2022-10-19T00:30:21.340Z,13.00
2022-10-19T00:35:25.008Z,12.90
2022-10-19T00:40:30.008Z,12.90
2022-10-19T00:45:33.831Z,12.80
2022-10-19T00:50:37.985Z,12.80
2022-10-19T00:55:43.419Z,12.80
2022-10-19T01:00:47.407Z,12.70
2022-10-19T01:05:51.577Z,12.70
2022-10-19T01:11:11.588Z,12.70
2022-10-19T01:16:21.350Z,12.60
2022-10-19T01:21:27.304Z,12.60
2022-10-19T01:27:18.846Z,12.60
2022-10-19T01:32:28.823Z,12.50
2022-10-19T01:37:39.101Z,12.50
2022-10-19T01:42:47.532Z,12.50
2022-10-19T01:47:59.753Z,12.50
2022-10-19T01:53:05.447Z,12.40
2022-10-19T01:58:12.114Z,12.40
2022-10-19T02:03:18.241Z,12.40
2022-10-19T02:08:26.336Z,12.30
2022-10-19T02:13:31.576Z,12.30
2022-10-19T02:18:41.702Z,12.30
2022-10-19T02:23:46.176Z,12.20
2022-10-19T02:28:51.560Z,12.20
2022-10-19T02:33:56.942Z,12.10
2022-10-19T02:39:00.988Z,12.20
2022-10-19T02:44:10.278Z,12.10
2022-10-19T02:49:16.786Z,12.10
2022-10-19T02:54:20.429Z,12.10
2022-10-19T02:59:24.637Z,12.00
2022-10-19T03:04:29.634Z,12.00
2022-10-19T03:09:33.270Z,12.00
2022-10-19T03:14:38.484Z,11.90
2022-10-19T03:19:43.469Z,11.90
2022-10-19T03:24:47.121Z,11.90
2022-10-19T03:29:50.747Z,11.80
2022-10-19T03:34:55.766Z,11.80
2022-10-19T03:39:59.520Z,11.80
2022-10-19T03:45:03.403Z,11.70
2022-10-19T03:50:11.357Z,11.70
2022-10-19T03:55:15.174Z,11.70
2022-10-19T04:00:18.895Z,11.70
2022-10-19T04:05:23.936Z,11.60
2022-10-19T04:10:31.980Z,11.60
2022-10-19T04:15:35.583Z,11.60
2022-10-19T04:20:42.831Z,11.60
2022-10-19T04:25:46.545Z,11.50
2022-10-19T04:30:52.715Z,11.50
2022-10-19T04:36:00.873Z,11.50
2022-10-19T04:41:05.484Z,11.40
2022-10-19T04:46:12.125Z,11.40
2022-10-19T04:51:17.608Z,11.40
2022-10-19T04:56:23.196Z,11.40
2022-10-19T05:01:28.873Z,11.30
2022-10-19T05:06:34.220Z,11.30
2022-10-19T05:11:37.891Z,11.30
2022-10-19T05:16:44.035Z,11.30
2022-10-19T05:21:49.067Z,11.20
2022-10-19T05:26:53.224Z,11.20
2022-10-19T05:31:56.917Z,11.20
2022-10-19T05:37:02.099Z,11.10
2022-10-19T05:42:05.794Z,11.20
2022-10-19T05:47:09.436Z,11.10
2022-10-19T05:52:15.423Z,11.10
2022-10-19T05:57:19.085Z,11.10
2022-10-19T06:02:22.803Z,11.00
2022-10-19T06:07:27.814Z,11.00
2022-10-19T06:12:31.457Z,11.00
2022-10-19T06:17:35.555Z,11.00
2022-10-19T06:22:42.455Z,10.90
2022-10-19T06:27:46.829Z,10.90
2022-10-19T06:32:50.591Z,10.90
2022-10-19T06:37:57.464Z,10.80
2022-10-19T06:43:01.128Z,10.90
2022-10-19T06:48:07.595Z,10.80
2022-10-19T06:53:13.411Z,10.80
2022-10-19T06:58:17.102Z,10.80
2022-10-19T07:03:20.748Z,10.80
2022-10-19T07:08:26.595Z,10.80
2022-10-19T07:13:31.338Z,10.80
2022-10-19T07:18:36.193Z,10.80
2022-10-19T07:23:43.018Z,10.80
2022-10-19T07:28:49.187Z,10.90
2022-10-19T07:33:56.695Z,10.90
2022-10-19T07:39:03.104Z,11.00
2022-10-19T07:44:08.169Z,11.00
2022-10-19T07:49:16.297Z,11.00
2022-10-19T07:54:22.666Z,11.00
2022-10-19T07:59:26.532Z,11.10
2022-10-19T08:09:55.444Z,11.20
2022-10-19T08:14:59.178Z,11.20
2022-10-19T08:20:03.124Z,11.30
2022-10-19T08:25:08.905Z,11.40
2022-10-19T08:30:13.131Z,11.40
2022-10-19T08:35:16.976Z,11.60
2022-10-19T08:40:25.784Z,12.10
2022-10-19T08:45:44.994Z,13.00
2022-10-19T08:50:49.607Z,13.90
2022-10-19T08:56:07.383Z,14.70
2022-10-19T09:01:17.659Z,15.50
2022-10-19T09:06:27.306Z,16.20
2022-10-19T09:11:37.206Z,16.80
2022-10-19T09:16:41.026Z,17.10
2022-10-19T09:21:49.563Z,17.30
2022-10-19T09:26:56.897Z,17.40
2022-10-19T09:32:02.512Z,17.50
2022-10-19T09:37:06.520Z,17.60
2022-10-19T09:42:19.148Z,17.90
2022-10-19T09:47:35.028Z,18.20
2022-10-19T09:52:40.676Z,18.40
2022-10-19T09:57:46.468Z,18.50
2022-10-19T10:02:51.348Z,18.70
2022-10-19T10:07:56.866Z,18.80
2022-10-19T10:13:02.714Z,18.80
2022-10-19T10:18:06.515Z,19.00
2022-10-19T10:23:26.214Z,19.10
2022-10-19T10:28:31.736Z,19.10
2022-10-19T10:33:46.236Z,19.10
2022-10-19T10:38:54.144Z,19.10
2022-10-19T10:44:04.920Z,18.90
2022-10-19T10:49:16.590Z,18.60
2022-10-19T10:54:21.847Z,18.20
2022-10-19T10:59:31.659Z,18.00
2022-10-19T11:04:40.479Z,17.80
2022-10-19T11:09:47.846Z,17.60
2022-10-19T11:14:57.638Z,17.50
2022-10-19T11:20:01.295Z,17.40
2022-10-19T11:25:23.546Z,17.40
2022-10-19T11:30:29.000Z,17.30
2022-10-19T11:35:52.845Z,17.30
2022-10-19T11:41:17.479Z,17.40
2022-10-19T11:46:30.785Z,17.50
2022-10-19T11:51:39.997Z,17.80
2022-10-19T11:57:09.410Z,18.10
2022-10-19T12:02:31.878Z,18.30
2022-10-19T12:07:52.467Z,18.50
2022-10-19T12:12:59.632Z,18.70
2022-10-19T12:18:11.451Z,18.90
2022-10-19T12:23:24.398Z,19.00
2022-10-19T12:28:31.903Z,19.20
2022-10-19T12:33:47.317Z,19.30
2022-10-19T12:39:01.167Z,19.30
2022-10-19T12:44:22.354Z,19.20
2022-10-19T12:49:55.669Z,19.00
2022-10-19T12:55:27.993Z,18.80
2022-10-19T13:00:33.976Z,18.50
2022-10-19T13:05:40.676Z,18.30
2022-10-19T13:11:06.807Z,18.20
2022-10-19T13:16:49.054Z,18.00
2022-10-19T13:22:25.786Z,17.90
2022-10-19T13:27:38.739Z,17.70
2022-10-19T13:32:44.767Z,17.60
2022-10-19T13:38:08.572Z,17.40
2022-10-19T13:43:22.156Z,17.30
2022-10-19T13:48:34.616Z,17.30
2022-10-19T13:53:45.354Z,17.20
2022-10-19T13:59:21.798Z,17.10
2022-10-19T14:04:37.546Z,17.00
2022-10-19T14:10:03.229Z,16.90
2022-10-19T14:15:25.545Z,16.80
2022-10-19T14:20:32.333Z,16.70
2022-10-19T14:25:36.196Z,16.60
2022-10-19T14:30:45.346Z,16.60
2022-10-19T14:35:51.775Z,16.50
2022-10-19T14:40:56.638Z,16.50
2022-10-19T14:46:15.934Z,16.40
2022-10-19T14:51:31.101Z,16.40
2022-10-19T14:56:41.178Z,16.30
2022-10-19T15:01:51.272Z,16.30
2022-10-19T15:06:56.355Z,16.20
2022-10-19T15:12:08.475Z,16.20
2022-10-19T15:17:28.853Z,16.10
2022-10-19T15:22:41.049Z,16.00
2022-10-19T15:27:50.150Z,15.90
2022-10-19T15:33:08.940Z,15.80
2022-10-19T15:38:20.252Z,15.80
2022-10-19T15:43:45.551Z,15.70
2022-10-19T15:48:55.199Z,15.60
2022-10-19T15:54:01.160Z,15.50
2022-10-19T15:59:09.967Z,15.50
2022-10-19T16:04:15.876Z,15.40
2022-10-19T16:09:21.859Z,15.40
2022-10-19T16:14:26.493Z,15.30
2022-10-19T16:19:31.859Z,15.30
2022-10-19T16:24:35.589Z,15.20
2022-10-19T16:29:39.253Z,15.20
2022-10-19T16:34:44.301Z,15.10
2022-10-19T16:39:47.961Z,15.10
2022-10-19T16:44:51.619Z,15.00
2022-10-19T16:50:01.042Z,14.90
2022-10-19T16:55:05.171Z,14.90
2022-10-19T17:00:10.144Z,14.80
2022-10-19T17:05:15.393Z,14.80
2022-10-19T17:10:19.357Z,14.70
2022-10-19T17:15:42.114Z,14.70
2022-10-19T17:20:48.213Z,14.60
2022-10-19T17:25:51.896Z,14.60
2022-10-19T17:30:57.701Z,14.50
2022-10-19T17:36:08.019Z,14.50
2022-10-19T17:41:13.505Z,14.40
2022-10-19T17:46:23.861Z,14.40
2022-10-19T17:51:30.832Z,14.40
2022-10-19T17:56:35.604Z,14.30
2022-10-19T18:01:39.455Z,14.30
2022-10-19T18:06:44.486Z,14.30
2022-10-19T18:11:48.224Z,14.20
2022-10-19T18:16:54.744Z,14.20
2022-10-19T18:21:59.912Z,14.20
2022-10-19T18:27:03.682Z,14.10
2022-10-19T18:32:07.497Z,14.10
2022-10-19T18:37:12.996Z,14.10
2022-10-19T18:42:17.874Z,14.10
2022-10-19T18:47:22.151Z,14.00
2022-10-19T18:52:27.595Z,14.00
2022-10-19T18:57:31.958Z,14.00
2022-10-19T19:02:46.303Z,13.90
2022-10-19T19:07:52.539Z,13.90
2022-10-19T19:12:56.355Z,13.80
2022-10-19T19:18:00.037Z,13.80
2022-10-19T19:23:05.127Z,13.80
2022-10-19T19:28:08.873Z,13.80
2022-10-19T19:33:12.692Z,13.70
2022-10-19T19:38:18.026Z,13.70
2022-10-19T19:43:21.829Z,13.60
2022-10-19T19:48:25.670Z,13.60
2022-10-19T19:53:30.720Z,13.60
2022-10-19T19:58:34.476Z,13.50
2022-10-19T20:03:38.912Z,13.50
2022-10-19T20:08:44.303Z,13.50
2022-10-19T20:13:48.237Z,13.50
2022-10-19T20:18:54.913Z,13.40
2022-10-19T20:24:00.017Z,13.40
2022-10-19T20:29:04.907Z,13.40
2022-10-19T20:34:10.819Z,13.40
2022-10-19T20:39:15.937Z,13.30
2022-10-19T20:44:19.766Z,13.30
2022-10-19T20:49:26.413Z,13.30
2022-10-19T20:54:33.517Z,13.20
2022-10-19T20:59:38.762Z,13.20
2022-10-19T21:04:47.162Z,13.20
2022-10-19T21:09:52.688Z,13.20
2022-10-19T21:14:56.574Z,13.10
2022-10-19T21:20:00.290Z,13.10
2022-10-19T21:25:06.053Z,13.10
2022-10-19T21:30:10.693Z,13.10
2022-10-19T21:35:14.559Z,13.00
2022-10-19T21:40:19.653Z,13.00
2022-10-19T21:45:30.411Z,13.00
2022-10-19T21:50:34.756Z,13.00
2022-10-19T21:55:39.886Z,13.00
2022-10-19T22:00:43.717Z,12.90
2022-10-19T22:05:53.784Z,13.00
2022-10-19T22:10:58.893Z,12.90
2022-10-19T22:16:06.617Z,12.90
2022-10-19T22:21:13.725Z,12.90
2022-10-19T22:26:19.576Z,12.90
2022-10-19T22:31:23.158Z,12.90
2022-10-19T22:36:27.058Z,12.90
2022-10-19T22:42:25.890Z,12.90
2022-10-19T22:47:49.495Z,12.80
2022-10-19T22:52:53.447Z,12.80
2022-10-19T22:57:58.167Z,12.80
2022-10-19T23:03:03.506Z,12.80
2022-10-19T23:08:07.431Z,12.80
2022-10-19T23:13:11.311Z,12.80
2022-10-19T23:18:16.381Z,12.80
2022-10-19T23:23:20.263Z,12.80
2022-10-19T23:28:24.114Z,12.80
2022-10-19T23:33:29.247Z,12.70
2022-10-19T23:38:32.984Z,12.70
2022-10-19T23:48:47.059Z,12.70
2022-10-19T23:53:52.627Z,12.70
2022-10-19T23:58:57.073Z,12.70
